Terminal Aerodrome Forecast
Issued by NWS

Home | Current Version | Previous Version | Text Only | Print | Product List | Glossary On
Versions: 1 2 3 4 5 6 7 8 9 10 11 12 13 14 15 16 17 18 19 20 21
000
FTUS43 KMQT 211400 AAA
TAFIWD
TAF AMD
KIWD 211405Z 2114/2212 02009KT P6SM SCT015 BKN025
      TEMPO 2114/2116 BKN015
     FM211800 35008KT P6SM SCT030
     FM220000 00000KT P6SM SKC
      AMD LTD TO CLD VIS AND WIND=

USA.gov is the U.S. government's official web portal to all federal, state and local government web resources and services.